createdAt,value
2023-03-03T00:00:11.582Z,0.09
2023-03-03T00:01:11.848Z,0.13
2023-03-03T00:02:12.551Z,0.09
2023-03-03T00:03:12.713Z,0.13
2023-03-03T00:04:12.698Z,0.09
2023-03-03T00:05:13.300Z,0.09
2023-03-03T00:06:13.997Z,0.09
2023-03-03T00:07:14.708Z,0.09
2023-03-03T00:08:15.243Z,0.09
2023-03-03T00:09:15.809Z,0.09
2023-03-03T00:10:16.634Z,0.09
2023-03-03T00:11:16.704Z,0.09
2023-03-03T00:12:17.236Z,0.09
2023-03-03T00:13:18.003Z,0.09
2023-03-03T00:14:18.566Z,0.09
2023-03-03T00:15:19.483Z,0.09
2023-03-03T00:16:20.131Z,0.09
2023-03-03T00:16:29.220Z,0.09
2023-03-03T00:17:29.361Z,0.09
2023-03-03T00:18:30.261Z,0.09
2023-03-03T00:19:30.811Z,0.09
2023-03-03T00:20:31.387Z,0.09
2023-03-03T00:21:32.045Z,0.09
2023-03-03T00:22:32.790Z,0.09
2023-03-03T00:23:33.500Z,0.13
2023-03-03T00:24:34.193Z,0.09
2023-03-03T00:25:34.797Z,0.09
2023-03-03T00:26:35.498Z,0.09
2023-03-03T00:27:35.877Z,0.09
2023-03-03T00:28:36.560Z,0.09
2023-03-03T00:29:37.434Z,0.09
2023-03-03T00:30:38.037Z,0.09
2023-03-03T00:31:38.235Z,0.09
2023-03-03T00:32:38.888Z,0.09
2023-03-03T00:33:39.797Z,0.09
2023-03-03T00:34:40.328Z,0.09
2023-03-03T00:35:41.203Z,0.09
2023-03-03T00:36:41.753Z,0.13
2023-03-03T00:37:42.378Z,0.09
2023-03-03T00:38:42.919Z,0.09
2023-03-03T00:39:43.580Z,0.09
2023-03-03T00:40:44.238Z,0.13
2023-03-03T00:41:44.902Z,0.09
2023-03-03T00:42:45.598Z,0.09
2023-03-03T00:43:46.409Z,0.09
2023-03-03T00:44:46.528Z,0.09
2023-03-03T00:45:47.698Z,0.09
2023-03-03T00:46:48.295Z,0.09
2023-03-03T00:47:48.961Z,0.09
2023-03-03T00:48:49.926Z,0.09
2023-03-03T00:49:50.577Z,0.09
2023-03-03T00:50:51.396Z,0.09
2023-03-03T00:51:51.440Z,0.09
2023-03-03T00:52:03.640Z,0.09
2023-03-03T00:53:04.514Z,0.09
2023-03-03T00:54:05.211Z,0.09
2023-03-03T00:55:05.269Z,0.09
2023-03-03T00:56:06.213Z,0.13
2023-03-03T00:57:06.841Z,0.13
2023-03-03T00:58:07.602Z,0.09
2023-03-03T00:59:08.265Z,0.09
2023-03-03T01:00:08.327Z,0.09
2023-03-03T01:01:09.141Z,0.09
2023-03-03T01:02:09.505Z,0.09
2023-03-03T01:03:10.151Z,0.09
2023-03-03T01:04:10.828Z,0.06
2023-03-03T01:05:11.190Z,0.09
2023-03-03T01:06:11.952Z,0.09
2023-03-03T01:07:12.543Z,0.09
2023-03-03T01:08:13.286Z,0.09
2023-03-03T01:09:13.856Z,0.09
2023-03-03T01:10:14.712Z,0.09
2023-03-03T01:11:15.575Z,0.09
2023-03-03T01:12:16.190Z,0.09
2023-03-03T01:13:16.857Z,0.09
2023-03-03T01:14:17.428Z,0.09
2023-03-03T01:15:17.946Z,0.09
2023-03-03T01:16:19.094Z,0.09
2023-03-03T01:17:19.409Z,0.09
2023-03-03T01:18:20.090Z,0.09
2023-03-03T01:19:20.754Z,0.09
2023-03-03T01:20:21.326Z,0.09
2023-03-03T01:21:21.978Z,0.09
2023-03-03T01:22:22.845Z,0.09
2023-03-03T01:23:23.467Z,0.09
2023-03-03T01:24:24.204Z,0.09
2023-03-03T01:24:33.457Z,0.09
2023-03-03T01:25:33.760Z,0.09
2023-03-03T01:26:34.525Z,0.09
2023-03-03T01:27:35.397Z,0.09
2023-03-03T01:28:36.173Z,0.09
2023-03-03T01:29:36.445Z,0.09
2023-03-03T01:30:36.553Z,0.09
2023-03-03T01:31:37.533Z,0.09
2023-03-03T01:32:38.365Z,0.09
2023-03-03T01:33:39.151Z,0.09
2023-03-03T01:34:39.834Z,0.09
2023-03-03T01:35:40.431Z,0.09
2023-03-03T01:36:40.414Z,0.09
2023-03-03T01:37:41.121Z,0.09
2023-03-03T01:38:41.703Z,0.09
2023-03-03T01:39:42.385Z,0.09
2023-03-03T01:40:42.454Z,0.09
2023-03-03T01:41:43.050Z,0.13
2023-03-03T01:42:43.732Z,0.09
2023-03-03T01:43:44.458Z,0.09
2023-03-03T01:44:45.327Z,0.09
2023-03-03T01:45:46.035Z,0.09
2023-03-03T01:46:46.833Z,0.09
2023-03-03T01:47:47.338Z,0.09
2023-03-03T01:48:47.438Z,0.09
2023-03-03T01:49:48.123Z,0.09
2023-03-03T01:50:48.752Z,0.09
2023-03-03T01:51:49.036Z,0.09
2023-03-03T01:52:49.816Z,0.09
2023-03-03T01:53:50.425Z,0.09
2023-03-03T01:54:50.473Z,0.09
2023-03-03T01:55:50.917Z,0.09
2023-03-03T01:56:51.343Z,0.09
2023-03-03T01:57:00.562Z,0.09
2023-03-03T01:58:00.817Z,0.09
2023-03-03T01:59:00.860Z,0.09
2023-03-03T02:00:01.710Z,0.09
2023-03-03T02:01:01.932Z,0.09
2023-03-03T02:02:02.642Z,0.09
2023-03-03T02:03:03.269Z,0.09
2023-03-03T02:04:03.568Z,0.09
2023-03-03T02:05:04.262Z,0.09
2023-03-03T02:06:05.039Z,0.09
2023-03-03T02:07:05.627Z,0.09
2023-03-03T02:08:05.948Z,0.09
2023-03-03T02:09:06.018Z,0.09
2023-03-03T02:10:06.258Z,0.09
2023-03-03T02:11:07.068Z,0.09
2023-03-03T02:12:07.290Z,0.09
2023-03-03T02:13:07.565Z,0.09
2023-03-03T02:14:08.411Z,0.09
2023-03-03T02:15:09.126Z,0.09
2023-03-03T02:16:09.827Z,0.09
2023-03-03T02:17:10.657Z,0.09
2023-03-03T02:18:11.319Z,0.09
2023-03-03T02:19:11.936Z,0.09
2023-03-03T02:20:12.702Z,0.09
2023-03-03T02:21:13.657Z,0.09
2023-03-03T02:22:14.252Z,0.09
2023-03-03T02:23:14.381Z,0.09
2023-03-03T02:24:14.923Z,0.09
2023-03-03T02:25:15.212Z,0.13
2023-03-03T02:26:15.371Z,0.13
2023-03-03T02:27:16.061Z,0.09
2023-03-03T02:27:25.796Z,0.13
2023-03-03T02:28:26.723Z,0.13
2023-03-03T02:29:27.447Z,0.13
2023-03-03T02:30:28.331Z,0.13
2023-03-03T02:31:28.729Z,0.09
2023-03-03T02:32:29.612Z,0.09
2023-03-03T02:33:30.214Z,0.09
2023-03-03T02:34:30.640Z,0.09
2023-03-03T02:35:31.737Z,0.09
2023-03-03T02:36:32.255Z,0.09
2023-03-03T02:37:32.409Z,0.13
2023-03-03T02:38:32.972Z,0.09
2023-03-03T02:39:33.520Z,0.09
2023-03-03T02:40:34.100Z,0.09
2023-03-03T02:41:34.659Z,0.13
2023-03-03T02:42:34.879Z,0.09
2023-03-03T02:43:35.619Z,0.13
2023-03-03T02:44:36.185Z,0.09
2023-03-03T02:45:36.920Z,0.09
2023-03-03T02:46:36.922Z,0.09
2023-03-03T02:47:37.249Z,0.09
2023-03-03T02:48:37.929Z,0.09
2023-03-03T02:49:38.618Z,0.09
2023-03-03T02:50:39.298Z,0.09
2023-03-03T02:51:39.929Z,0.09
2023-03-03T02:52:40.587Z,0.09
2023-03-03T02:53:41.394Z,0.09
2023-03-03T02:54:42.089Z,0.09
2023-03-03T02:55:42.209Z,0.09
2023-03-03T02:56:42.874Z,0.09
2023-03-03T02:57:43.035Z,0.09
2023-03-03T02:58:43.902Z,0.09
2023-03-03T02:59:44.676Z,0.09
2023-03-03T03:00:45.034Z,0.09
2023-03-03T03:00:59.217Z,0.06
2023-03-03T03:01:58.462Z,0.09
2023-03-03T03:02:59.312Z,0.09
2023-03-03T03:04:00.297Z,0.09
2023-03-03T03:05:00.552Z,0.09
2023-03-03T03:06:01.448Z,0.09
2023-03-03T03:07:02.417Z,0.09
2023-03-03T03:08:03.316Z,0.09
2023-03-03T03:09:04.113Z,0.09
2023-03-03T03:10:04.681Z,0.09
2023-03-03T03:11:06.548Z,0.09
2023-03-03T03:12:06.255Z,0.09
2023-03-03T03:13:06.892Z,0.09
2023-03-03T03:14:07.511Z,0.09
2023-03-03T03:15:08.336Z,0.09
2023-03-03T03:16:09.222Z,0.09
2023-03-03T03:17:09.749Z,0.09
2023-03-03T03:18:10.120Z,0.09
2023-03-03T03:19:10.721Z,0.09
2023-03-03T03:20:11.587Z,0.09
2023-03-03T03:21:12.359Z,0.09
2023-03-03T03:22:13.226Z,0.09
2023-03-03T03:23:13.424Z,0.09
2023-03-03T03:24:14.381Z,0.09
2023-03-03T03:25:14.579Z,0.09
2023-03-03T03:26:15.270Z,0.09
2023-03-03T03:27:16.260Z,0.09
2023-03-03T03:28:16.878Z,0.09
2023-03-03T03:29:17.209Z,0.09
2023-03-03T03:30:17.855Z,0.09
2023-03-03T03:31:18.382Z,0.09
2023-03-03T03:32:19.017Z,0.09
2023-03-03T03:32:28.864Z,0.09
2023-03-03T03:33:29.283Z,0.09
2023-03-03T03:34:29.999Z,0.09
2023-03-03T03:35:30.638Z,0.09
2023-03-03T03:36:31.367Z,0.09
2023-03-03T03:37:31.980Z,0.09
2023-03-03T03:38:32.570Z,0.09
2023-03-03T03:39:33.377Z,0.09
2023-03-03T03:40:34.177Z,0.09
2023-03-03T03:41:34.504Z,0.09
2023-03-03T03:42:35.352Z,0.09
2023-03-03T03:43:36.307Z,0.09
2023-03-03T03:44:36.557Z,0.09
2023-03-03T03:45:37.559Z,0.09
2023-03-03T03:46:38.370Z,0.09
2023-03-03T03:47:38.987Z,0.09
2023-03-03T03:48:39.553Z,0.09
2023-03-03T03:49:40.315Z,0.09
2023-03-03T03:50:40.396Z,0.09
2023-03-03T03:51:40.958Z,0.09
2023-03-03T03:52:41.510Z,0.09
2023-03-03T03:53:42.364Z,0.09
2023-03-03T03:54:43.357Z,0.09
2023-03-03T03:55:43.990Z,0.09
2023-03-03T03:56:44.603Z,0.09
2023-03-03T03:57:44.973Z,0.09
2023-03-03T03:58:44.946Z,0.09
2023-03-03T03:59:45.649Z,0.09
2023-03-03T04:00:46.520Z,0.09
2023-03-03T04:01:47.280Z,0.09
2023-03-03T04:02:48.313Z,0.09
2023-03-03T04:02:57.651Z,0.09
2023-03-03T04:03:58.203Z,0.09
2023-03-03T04:04:59.097Z,0.09
2023-03-03T04:05:59.209Z,0.09
2023-03-03T04:06:59.280Z,0.13
2023-03-03T04:08:00.139Z,0.09
2023-03-03T04:09:00.688Z,0.09
2023-03-03T04:10:00.876Z,0.13
2023-03-03T04:11:00.958Z,0.09
2023-03-03T04:12:01.632Z,0.09
2023-03-03T04:13:02.527Z,0.09
2023-03-03T04:14:02.836Z,0.09
2023-03-03T04:15:03.115Z,0.13
2023-03-03T04:16:03.831Z,0.09
2023-03-03T04:17:04.593Z,0.09
2023-03-03T04:18:04.863Z,0.09
2023-03-03T04:19:05.764Z,0.09
2023-03-03T04:20:06.743Z,0.09
2023-03-03T04:21:07.318Z,0.09
2023-03-03T04:22:08.033Z,0.13
2023-03-03T04:23:08.332Z,0.13
2023-03-03T04:24:08.911Z,0.09
2023-03-03T04:25:09.112Z,0.09
2023-03-03T04:26:09.829Z,0.09
2023-03-03T04:27:09.858Z,0.13
2023-03-03T04:28:10.474Z,0.13
2023-03-03T04:29:11.326Z,0.09
2023-03-03T04:30:12.163Z,0.13
2023-03-03T04:31:12.369Z,0.13
2023-03-03T04:32:13.296Z,0.09
2023-03-03T04:33:13.954Z,0.09
2023-03-03T04:33:26.276Z,0.13
2023-03-03T04:34:27.183Z,0.09
2023-03-03T04:35:27.851Z,0.13
2023-03-03T04:36:27.834Z,0.13
2023-03-03T04:37:28.426Z,0.09
2023-03-03T04:38:29.105Z,0.09
2023-03-03T04:39:29.872Z,0.09
2023-03-03T04:40:30.570Z,0.09
2023-03-03T04:41:31.222Z,0.09
2023-03-03T04:42:32.889Z,0.09
2023-03-03T04:43:32.700Z,0.09
2023-03-03T04:44:33.274Z,0.09
2023-03-03T04:45:33.917Z,0.09
2023-03-03T04:46:34.525Z,0.13
2023-03-03T04:47:35.087Z,0.09
2023-03-03T04:48:35.255Z,0.09
2023-03-03T04:49:35.946Z,0.09
2023-03-03T04:50:36.621Z,0.09
2023-03-03T04:51:37.008Z,0.09
2023-03-03T04:52:37.743Z,0.09
2023-03-03T04:53:38.440Z,0.09
2023-03-03T04:54:39.404Z,0.09
2023-03-03T04:55:40.025Z,0.09
2023-03-03T04:56:40.656Z,0.09
2023-03-03T04:57:41.342Z,0.09
2023-03-03T04:58:42.209Z,0.09
2023-03-03T04:59:42.666Z,0.09
2023-03-03T05:00:43.266Z,0.09
2023-03-03T05:01:43.363Z,0.09
2023-03-03T05:02:44.201Z,0.09
2023-03-03T05:03:44.995Z,0.09
2023-03-03T05:04:45.841Z,0.09
2023-03-03T05:05:45.902Z,0.09
2023-03-03T05:05:55.268Z,0.09
2023-03-03T05:06:55.736Z,0.09
2023-03-03T05:07:55.939Z,0.09
2023-03-03T05:08:56.151Z,0.09
2023-03-03T05:09:56.149Z,0.09
2023-03-03T05:10:56.523Z,0.09
2023-03-03T05:11:56.679Z,0.09
2023-03-03T05:12:57.505Z,0.09
2023-03-03T05:13:57.955Z,0.09
2023-03-03T05:14:58.503Z,0.09
2023-03-03T05:15:58.848Z,0.09
2023-03-03T05:16:59.560Z,0.13
2023-03-03T05:18:00.392Z,0.13
2023-03-03T05:19:01.109Z,0.09
2023-03-03T05:20:01.383Z,0.09
2023-03-03T05:21:01.422Z,0.09
2023-03-03T05:22:01.502Z,0.09
2023-03-03T05:23:01.734Z,0.13
2023-03-03T05:24:01.883Z,0.09
2023-03-03T05:25:01.920Z,0.09
2023-03-03T05:26:02.716Z,0.09
2023-03-03T05:27:02.808Z,0.13
2023-03-03T05:28:03.503Z,0.13
2023-03-03T05:29:03.941Z,0.13
2023-03-03T05:30:04.727Z,0.09
2023-03-03T05:31:05.167Z,0.09
2023-03-03T05:32:06.128Z,0.13
2023-03-03T05:33:07.195Z,0.13
2023-03-03T05:34:06.738Z,0.13
2023-03-03T05:35:07.538Z,0.13
2023-03-03T05:36:07.528Z,0.13
2023-03-03T05:36:17.592Z,0.13
2023-03-03T05:37:18.440Z,0.13
2023-03-03T05:38:19.100Z,0.13
2023-03-03T05:39:21.208Z,0.13
2023-03-03T05:40:20.271Z,0.13
2023-03-03T05:41:21.241Z,0.13
2023-03-03T05:42:21.568Z,0.13
2023-03-03T05:43:22.208Z,0.16
2023-03-03T05:44:22.902Z,0.13
2023-03-03T05:45:23.070Z,0.13
2023-03-03T05:46:23.173Z,0.13
2023-03-03T05:47:23.846Z,0.13
2023-03-03T05:48:24.004Z,0.13
2023-03-03T05:49:24.616Z,0.13
2023-03-03T05:50:25.522Z,0.13
2023-03-03T05:51:26.197Z,0.13
2023-03-03T05:52:26.350Z,0.13
2023-03-03T05:53:27.351Z,0.13
2023-03-03T05:54:28.022Z,0.13
2023-03-03T05:55:28.543Z,0.13
2023-03-03T05:56:29.172Z,0.13
2023-03-03T05:57:29.886Z,0.13
2023-03-03T05:58:30.138Z,0.23
2023-03-03T05:59:30.572Z,0.13
2023-03-03T06:00:30.604Z,0.13
2023-03-03T06:01:31.578Z,0.16
2023-03-03T06:02:31.715Z,0.13
2023-03-03T06:02:42.449Z,0.13
2023-03-03T06:03:42.350Z,0.13
2023-03-03T06:04:42.577Z,0.13
2023-03-03T06:05:43.863Z,0.13
2023-03-03T06:06:43.521Z,0.16
2023-03-03T06:07:43.586Z,0.16
2023-03-03T06:08:44.010Z,0.13
2023-03-03T06:09:44.850Z,0.23
2023-03-03T06:10:45.374Z,0.16
2023-03-03T06:11:45.369Z,0.16
2023-03-03T06:12:45.782Z,0.23
2023-03-03T06:13:46.599Z,0.23
2023-03-03T06:14:47.146Z,0.23
2023-03-03T06:15:47.453Z,0.13
2023-03-03T06:16:48.174Z,0.16
2023-03-03T06:17:49.167Z,0.16
2023-03-03T06:18:49.914Z,0.16
2023-03-03T06:19:50.196Z,0.16
2023-03-03T06:20:51.232Z,0.16
2023-03-03T06:21:51.263Z,0.16
2023-03-03T06:22:51.597Z,0.16
2023-03-03T06:23:51.948Z,0.16
2023-03-03T06:24:52.595Z,0.16
2023-03-03T06:25:53.447Z,0.16
2023-03-03T06:26:53.379Z,0.16
2023-03-03T06:27:53.950Z,0.16
2023-03-03T06:28:55.136Z,0.16
2023-03-03T06:29:54.135Z,0.23
2023-03-03T06:30:55.121Z,0.23
2023-03-03T06:31:56.023Z,0.16
2023-03-03T06:32:56.851Z,0.16
2023-03-03T06:33:57.131Z,0.16
2023-03-03T06:34:57.926Z,0.16
2023-03-03T06:35:09.686Z,0.23
2023-03-03T06:36:09.872Z,0.23
2023-03-03T06:37:10.678Z,0.23
2023-03-03T06:38:11.197Z,0.23
2023-03-03T06:39:11.367Z,0.23
2023-03-03T06:40:12.027Z,0.23
2023-03-03T06:41:12.046Z,0.23
2023-03-03T06:42:13.013Z,0.23
2023-03-03T06:43:13.877Z,0.23
2023-03-03T06:44:14.569Z,0.23
2023-03-03T06:45:14.670Z,0.23
2023-03-03T06:46:15.530Z,0.23
2023-03-03T06:47:17.197Z,0.27
2023-03-03T06:48:16.765Z,0.27
2023-03-03T06:49:16.923Z,0.27
2023-03-03T06:50:17.574Z,0.27
2023-03-03T06:51:17.722Z,0.27
2023-03-03T06:52:18.288Z,0.27
2023-03-03T06:53:19.092Z,0.27
2023-03-03T06:54:19.810Z,0.27
2023-03-03T06:55:20.169Z,0.27
2023-03-03T06:56:20.981Z,0.27
2023-03-03T06:57:21.533Z,0.27
2023-03-03T06:58:22.179Z,0.27
2023-03-03T06:59:22.966Z,0.27
2023-03-03T07:00:23.279Z,0.31
2023-03-03T07:01:23.800Z,0.31
2023-03-03T07:02:23.925Z,0.27
2023-03-03T07:03:24.636Z,0.27
2023-03-03T07:04:24.693Z,0.27
2023-03-03T07:05:25.137Z,0.31
2023-03-03T07:05:36.898Z,0.31
2023-03-03T07:06:37.832Z,0.27
2023-03-03T07:07:38.711Z,0.31
2023-03-03T07:08:38.800Z,0.27
2023-03-03T07:09:39.683Z,0.27
2023-03-03T07:10:40.336Z,0.31
2023-03-03T07:11:40.350Z,0.27
2023-03-03T07:12:40.505Z,0.31
2023-03-03T07:13:41.036Z,0.27
2023-03-03T07:14:41.549Z,0.31
2023-03-03T07:15:42.348Z,0.31
2023-03-03T07:16:42.697Z,0.31
2023-03-03T07:17:42.530Z,0.31
2023-03-03T07:18:42.617Z,0.31
2023-03-03T07:19:43.196Z,0.31
2023-03-03T07:20:44.193Z,0.31
2023-03-03T07:21:44.814Z,0.31
2023-03-03T07:22:45.614Z,0.31
2023-03-03T07:23:45.622Z,0.31
2023-03-03T07:24:45.729Z,0.31
2023-03-03T07:25:46.578Z,0.31
2023-03-03T07:26:47.513Z,0.31
2023-03-03T07:27:48.134Z,0.31
2023-03-03T07:28:48.316Z,0.31
2023-03-03T07:29:49.045Z,0.31
2023-03-03T07:30:49.333Z,0.31
2023-03-03T07:31:49.655Z,0.31
2023-03-03T07:32:50.139Z,0.31
2023-03-03T07:32:59.368Z,0.31
2023-03-03T07:33:59.899Z,0.31
2023-03-03T07:35:00.163Z,0.31
2023-03-03T07:36:00.282Z,0.31
2023-03-03T07:37:00.419Z,0.31
2023-03-03T07:38:01.130Z,0.31
2023-03-03T07:39:02.174Z,0.31
2023-03-03T07:40:03.311Z,0.31
2023-03-03T07:41:03.334Z,0.31
2023-03-03T07:42:03.707Z,0.27
2023-03-03T07:43:03.985Z,0.31
2023-03-03T07:44:04.976Z,0.31
2023-03-03T07:45:05.330Z,0.31
2023-03-03T07:46:06.203Z,0.31
2023-03-03T07:47:06.768Z,0.31
2023-03-03T07:48:07.548Z,0.31
2023-03-03T07:49:07.882Z,0.31
2023-03-03T07:50:08.401Z,0.31
2023-03-03T07:51:09.250Z,0.31
2023-03-03T07:52:09.270Z,0.31
2023-03-03T07:53:09.302Z,0.31
2023-03-03T07:54:09.501Z,0.34
2023-03-03T07:55:11.105Z,0.34
2023-03-03T07:56:10.090Z,0.34
2023-03-03T07:57:10.916Z,0.34
2023-03-03T07:58:11.271Z,0.38
2023-03-03T07:59:12.264Z,0.38
2023-03-03T08:00:12.943Z,0.31
2023-03-03T08:00:25.153Z,0.38
2023-03-03T08:01:25.185Z,0.31
2023-03-03T08:02:25.841Z,0.34
2023-03-03T08:03:26.001Z,0.34
2023-03-03T08:04:26.483Z,0.34
2023-03-03T08:05:26.800Z,0.34
2023-03-03T08:06:27.722Z,0.38
2023-03-03T08:07:28.425Z,0.38
2023-03-03T08:08:28.429Z,0.34
2023-03-03T08:09:30.240Z,0.34
2023-03-03T08:10:29.901Z,0.34
2023-03-03T08:11:29.901Z,0.34
2023-03-03T08:12:30.798Z,0.34
2023-03-03T08:13:31.320Z,0.34
2023-03-03T08:14:31.574Z,0.34
2023-03-03T08:15:31.940Z,0.38
2023-03-03T08:16:32.454Z,0.38
2023-03-03T08:17:33.305Z,0.38
2023-03-03T08:18:34.132Z,0.38
2023-03-03T08:19:34.682Z,0.38
2023-03-03T08:20:35.390Z,0.34
2023-03-03T08:21:35.816Z,0.38
2023-03-03T08:22:36.618Z,0.38
2023-03-03T08:23:37.126Z,0.38
2023-03-03T08:24:38.639Z,0.38
2023-03-03T08:25:38.636Z,0.38
2023-03-03T08:26:38.863Z,0.38
2023-03-03T08:27:39.830Z,0.38
2023-03-03T08:28:39.891Z,0.41
2023-03-03T08:29:40.824Z,0.41
2023-03-03T08:30:41.769Z,0.41
2023-03-03T08:31:42.291Z,0.38
2023-03-03T08:31:51.017Z,0.41
2023-03-03T08:32:51.742Z,0.38
2023-03-03T08:33:52.422Z,0.38
2023-03-03T08:34:52.653Z,0.34
2023-03-03T08:35:53.175Z,0.38
2023-03-03T08:36:53.766Z,0.38
2023-03-03T08:37:54.435Z,0.41
2023-03-03T08:38:55.053Z,0.34
2023-03-03T08:39:55.857Z,0.34
2023-03-03T08:40:55.533Z,0.38
2023-03-03T08:41:56.145Z,0.38
2023-03-03T08:42:57.024Z,0.41
2023-03-03T08:43:57.812Z,0.41
2023-03-03T08:44:57.925Z,0.45
2023-03-03T08:45:57.985Z,0.41
2023-03-03T08:46:58.960Z,0.45
2023-03-03T08:47:59.774Z,0.41
2023-03-03T08:49:00.412Z,0.41
2023-03-03T08:50:01.018Z,0.41
2023-03-03T08:51:01.635Z,0.38
2023-03-03T08:52:02.300Z,0.41
2023-03-03T08:53:03.214Z,0.41
2023-03-03T08:54:03.929Z,0.41
2023-03-03T08:55:04.691Z,0.41
2023-03-03T08:56:04.867Z,0.41
2023-03-03T08:57:05.676Z,0.41
2023-03-03T08:58:06.376Z,0.41
2023-03-03T08:59:07.233Z,0.41
2023-03-03T09:00:07.255Z,0.41
2023-03-03T09:01:08.147Z,0.41
2023-03-03T09:02:08.890Z,0.45
2023-03-03T09:03:09.310Z,0.45
2023-03-03T09:03:18.065Z,0.45
2023-03-03T09:04:18.085Z,0.45
2023-03-03T09:05:18.753Z,0.45
2023-03-03T09:06:19.610Z,0.45
2023-03-03T09:07:19.590Z,0.45
2023-03-03T09:08:20.331Z,0.45
2023-03-03T09:09:20.509Z,0.45
2023-03-03T09:10:21.387Z,0.45
2023-03-03T09:11:22.434Z,0.48
2023-03-03T09:12:22.434Z,0.48
2023-03-03T09:13:23.109Z,0.48
2023-03-03T09:14:23.956Z,0.45
2023-03-03T09:15:24.744Z,0.45
2023-03-03T09:16:25.570Z,0.45
2023-03-03T09:17:26.108Z,0.45
2023-03-03T09:18:26.892Z,0.45
2023-03-03T09:19:27.532Z,0.45
2023-03-03T09:20:27.754Z,0.45
2023-03-03T09:21:27.970Z,0.45
2023-03-03T09:22:28.652Z,0.45
2023-03-03T09:23:29.037Z,0.45
2023-03-03T09:24:29.703Z,0.45
2023-03-03T09:25:29.820Z,0.45
2023-03-03T09:26:30.678Z,0.45
2023-03-03T09:27:31.332Z,0.48
2023-03-03T09:28:31.968Z,0.48
2023-03-03T09:29:32.539Z,0.48
2023-03-03T09:30:33.338Z,0.45
2023-03-03T09:31:34.161Z,0.55
2023-03-03T09:32:34.812Z,0.48
2023-03-03T09:33:34.807Z,0.59
2023-03-03T09:34:35.120Z,0.45
2023-03-03T09:34:45.808Z,0.48
2023-03-03T09:35:46.448Z,0.48
2023-03-03T09:36:47.157Z,0.48
2023-03-03T09:37:47.900Z,0.48
2023-03-03T09:38:48.243Z,0.48
2023-03-03T09:39:48.997Z,0.48
2023-03-03T09:40:49.654Z,0.48
2023-03-03T09:41:49.918Z,0.45
2023-03-03T09:42:50.502Z,0.45
2023-03-03T09:43:51.333Z,0.45
2023-03-03T09:44:51.962Z,0.45
2023-03-03T09:45:52.790Z,0.48
2023-03-03T09:46:53.833Z,0.48
2023-03-03T09:47:54.138Z,0.45
2023-03-03T09:48:54.189Z,0.52
2023-03-03T09:49:54.897Z,0.45
2023-03-03T09:50:55.576Z,0.48
2023-03-03T09:51:56.629Z,0.55
2023-03-03T09:52:56.659Z,0.48
2023-03-03T09:53:57.257Z,0.48
2023-03-03T09:54:57.505Z,0.48
2023-03-03T09:55:58.402Z,0.48
2023-03-03T09:56:58.904Z,0.48
2023-03-03T09:58:10.065Z,0.48
2023-03-03T09:58:59.036Z,0.48
2023-03-03T10:00:00.031Z,0.48
2023-03-03T10:01:00.827Z,0.48
2023-03-03T10:02:00.922Z,0.52
2023-03-03T10:03:01.104Z,0.48
2023-03-03T10:04:01.112Z,0.48
2023-03-03T10:05:01.859Z,0.48
2023-03-03T10:06:01.903Z,0.45
2023-03-03T10:06:14.139Z,0.45
2023-03-03T10:07:14.321Z,0.48
2023-03-03T10:08:15.148Z,0.52
2023-03-03T10:09:15.974Z,0.59
2023-03-03T10:10:16.699Z,0.59
2023-03-03T10:11:17.632Z,0.66
2023-03-03T10:12:17.961Z,0.59
2023-03-03T10:13:18.324Z,0.59
2023-03-03T10:14:19.180Z,0.55
2023-03-03T10:15:19.887Z,0.59
2023-03-03T10:16:20.812Z,0.52
2023-03-03T10:17:21.625Z,0.55
2023-03-03T10:18:21.617Z,0.52
2023-03-03T10:19:22.519Z,0.59
2023-03-03T10:20:23.482Z,0.55
2023-03-03T10:21:24.170Z,0.55
2023-03-03T10:22:24.877Z,0.52
2023-03-03T10:23:25.693Z,0.52
2023-03-03T10:24:26.376Z,0.55
2023-03-03T10:25:26.541Z,0.59
2023-03-03T10:26:42.197Z,0.59
2023-03-03T10:27:27.387Z,0.59
2023-03-03T10:28:28.140Z,0.59
2023-03-03T10:29:30.732Z,0.48
2023-03-03T10:30:39.893Z,0.48
2023-03-03T10:31:30.030Z,0.45
2023-03-03T10:32:30.884Z,0.45
2023-03-03T10:33:31.179Z,0.48
2023-03-03T10:34:31.207Z,0.45
2023-03-03T10:35:31.938Z,0.45
2023-03-03T10:36:32.245Z,0.45
2023-03-03T10:36:41.923Z,0.45
2023-03-03T10:37:40.938Z,0.41
2023-03-03T10:38:41.813Z,0.41
2023-03-03T10:39:42.789Z,0.41
2023-03-03T10:40:43.604Z,0.41
2023-03-03T10:41:44.547Z,0.41
2023-03-03T10:42:45.133Z,0.45
2023-03-03T10:43:45.927Z,0.45
2023-03-03T10:44:45.948Z,0.45
2023-03-03T10:45:46.083Z,0.48
2023-03-03T10:46:46.869Z,0.45
2023-03-03T10:47:47.514Z,0.45
2023-03-03T10:48:48.386Z,0.45
2023-03-03T10:49:48.553Z,0.48
2023-03-03T10:50:49.233Z,0.48
2023-03-03T10:51:50.147Z,0.48
2023-03-03T10:52:50.698Z,0.48
2023-03-03T10:53:51.283Z,0.48
2023-03-03T10:54:51.333Z,0.48
2023-03-03T10:55:52.260Z,0.45
2023-03-03T10:56:53.958Z,0.45
2023-03-03T10:57:53.484Z,0.45
2023-03-03T10:58:53.874Z,0.48
2023-03-03T10:59:54.547Z,0.48
2023-03-03T11:00:55.606Z,0.48
2023-03-03T11:01:56.544Z,0.52
2023-03-03T11:02:57.200Z,0.55
2023-03-03T11:03:57.844Z,0.59
2023-03-03T11:04:57.687Z,0.55
2023-03-03T11:05:57.973Z,0.59
2023-03-03T11:06:58.713Z,0.66
2023-03-03T11:07:59.017Z,0.66
2023-03-03T11:08:09.051Z,0.59
2023-03-03T11:09:09.280Z,0.55
2023-03-03T11:10:09.529Z,0.52
2023-03-03T11:11:10.417Z,0.48
2023-03-03T11:12:11.186Z,0.52
2023-03-03T11:13:11.444Z,0.48
2023-03-03T11:14:12.197Z,0.52
2023-03-03T11:15:12.911Z,0.59
2023-03-03T11:16:13.584Z,0.59
2023-03-03T11:17:14.405Z,0.59
2023-03-03T11:18:14.926Z,0.59
2023-03-03T11:19:15.625Z,0.59
2023-03-03T11:20:16.593Z,0.59
2023-03-03T11:21:17.262Z,0.66
2023-03-03T11:22:17.976Z,0.59
2023-03-03T11:23:18.567Z,0.59
2023-03-03T11:24:18.792Z,0.55
2023-03-03T11:25:19.437Z,0.59
2023-03-03T11:26:20.032Z,0.66
2023-03-03T11:27:20.944Z,0.59
2023-03-03T11:28:21.548Z,0.66
2023-03-03T11:29:22.537Z,0.66
2023-03-03T11:30:23.373Z,0.77
2023-03-03T11:31:25.591Z,0.70
2023-03-03T11:32:23.886Z,0.70
2023-03-03T11:33:23.970Z,0.73
2023-03-03T11:34:24.654Z,0.73
2023-03-03T11:35:25.370Z,0.70
2023-03-03T11:36:25.748Z,0.66
2023-03-03T11:37:26.542Z,0.66
2023-03-03T11:38:27.240Z,0.66
2023-03-03T11:39:28.049Z,0.66
2023-03-03T11:39:36.792Z,0.73
2023-03-03T11:40:37.359Z,0.66
2023-03-03T11:41:37.600Z,0.73
2023-03-03T11:42:37.629Z,0.73
2023-03-03T11:43:38.562Z,0.73
2023-03-03T11:44:39.243Z,0.73
2023-03-03T11:45:39.780Z,0.73
2023-03-03T11:46:40.405Z,0.73
2023-03-03T11:47:41.162Z,0.70
2023-03-03T11:48:41.901Z,0.70
2023-03-03T11:49:42.526Z,0.70
2023-03-03T11:50:43.361Z,0.70
2023-03-03T11:51:43.433Z,0.70
2023-03-03T11:52:44.098Z,0.70
2023-03-03T11:54:13.608Z,0.66
2023-03-03T11:55:14.112Z,0.70
2023-03-03T11:56:14.667Z,0.70
2023-03-03T11:57:15.534Z,0.70
2023-03-03T11:58:16.118Z,0.70
2023-03-03T11:59:16.949Z,0.73
2023-03-03T12:00:17.828Z,0.77
2023-03-03T12:01:18.320Z,0.77
2023-03-03T12:02:18.355Z,0.77
2023-03-03T12:03:18.326Z,0.80
2023-03-03T12:04:19.188Z,0.80
2023-03-03T12:05:19.581Z,0.77
2023-03-03T12:06:20.325Z,0.73
2023-03-03T12:07:20.786Z,0.73
2023-03-03T12:08:21.211Z,0.70
2023-03-03T12:09:21.763Z,0.70
2023-03-03T12:10:22.281Z,0.70
2023-03-03T12:10:31.524Z,0.70
2023-03-03T12:11:32.011Z,0.70
2023-03-03T12:12:32.610Z,0.73
2023-03-03T12:13:33.133Z,0.66
2023-03-03T12:14:33.800Z,0.73
2023-03-03T12:15:34.552Z,0.77
2023-03-03T12:16:34.387Z,0.77
2023-03-03T12:17:34.989Z,0.77
2023-03-03T12:18:35.423Z,0.91
2023-03-03T12:19:36.250Z,1.30
2023-03-03T12:20:36.965Z,0.95
2023-03-03T12:21:36.858Z,0.77
2023-03-03T12:22:37.365Z,0.70
2023-03-03T12:23:37.397Z,0.66
2023-03-03T12:24:37.892Z,0.59
2023-03-03T12:25:38.534Z,0.59
2023-03-03T12:26:38.943Z,0.66
2023-03-03T12:27:39.891Z,0.59
2023-03-03T12:28:40.613Z,0.55
2023-03-03T12:29:41.440Z,0.59
2023-03-03T12:30:41.637Z,0.59
2023-03-03T12:31:42.224Z,0.66
2023-03-03T12:32:42.260Z,0.66
2023-03-03T12:33:42.514Z,0.66
2023-03-03T12:34:42.821Z,0.66
2023-03-03T12:35:43.430Z,0.66
2023-03-03T12:36:43.608Z,0.59
2023-03-03T12:37:44.202Z,0.59
2023-03-03T12:38:44.695Z,0.59
2023-03-03T12:39:45.411Z,0.59
2023-03-03T12:40:46.015Z,0.66
2023-03-03T12:41:46.248Z,0.70
2023-03-03T12:42:46.768Z,0.70
2023-03-03T12:42:55.977Z,0.70
2023-03-03T12:43:56.988Z,0.73
2023-03-03T12:44:57.534Z,0.70
2023-03-03T12:45:58.139Z,0.66
2023-03-03T12:46:58.533Z,0.59
2023-03-03T12:47:58.915Z,0.59
2023-03-03T12:48:59.649Z,0.66
2023-03-03T12:50:07.437Z,0.70
2023-03-03T12:51:00.730Z,0.70
2023-03-03T12:52:01.356Z,0.70
2023-03-03T12:53:02.873Z,0.77
2023-03-03T12:54:02.549Z,0.80
2023-03-03T12:55:02.876Z,0.84
2023-03-03T12:56:02.916Z,0.84
2023-03-03T12:57:03.215Z,0.80
2023-03-03T12:58:03.285Z,0.77
2023-03-03T12:59:04.126Z,0.77
2023-03-03T13:00:04.206Z,0.77
2023-03-03T13:01:05.035Z,0.73
2023-03-03T13:02:06.377Z,0.73
2023-03-03T13:03:06.879Z,0.73
2023-03-03T13:04:07.173Z,0.70
2023-03-03T13:05:07.088Z,0.70